Time;durP1;ratioP1;P1;durP2;ratioP2;P2;SDS_P1;SDS_P2;PMS_P1;PMS_P2;Temp;Humidity;BMP_temperature;BMP_pressure;BME280_temperature;BME280_humidity;BME280_pressure;Samples;Min_cycle;Max_cycle;Signal;HPM_P1;HPM_P2
2022/01/25 00:31:03;;;;;;;;;66.50;54.25;;;;;4.44;87.97;102524.19;4847002;29;45516;-84
2022/01/25 00:33:31;;;;;;;;;70.00;56.00;;;;;4.38;88.11;102518.53;4847962;29;45577;-84
2022/01/25 00:35:57;;;;;;;;;72.00;59.25;;;;;4.41;89.00;102524.00;4847217;29;45558;-86
2022/01/25 00:38:23;;;;;;;;;70.00;53.75;;;;;4.32;88.53;102519.03;4872325;29;45494;-85
2022/01/25 00:40:49;;;;;;;;;69.00;54.75;;;;;4.30;88.59;102515.41;4889229;29;45483;-85
2022/01/25 00:43:15;;;;;;;;;67.50;54.75;;;;;4.29;88.69;102513.56;4890097;29;47343;-85
2022/01/25 00:45:40;;;;;;;;;74.75;59.50;;;;;4.28;88.29;102517.00;4889403;29;45373;-85
2022/01/25 00:48:08;;;;;;;;;71.00;55.75;;;;;4.23;88.89;102521.03;4889431;29;45312;-85
2022/01/25 00:50:41;;;;;;;;;71.50;59.00;;;;;4.26;89.50;102517.69;4887832;29;45558;-85
2022/01/25 00:55:33;;;;;;;;;75.25;58.00;;;;;4.20;89.23;102528.72;4905354;29;44713;-85
2022/01/25 00:58:00;;;;;;;;;68.00;54.00;;;;;4.16;89.35;102517.06;4890855;28;45408;-84
2022/01/25 01:00:27;;;;;;;;;74.50;59.00;;;;;4.09;89.16;102512.19;4907937;28;45403;-84
2022/01/25 01:02:53;;;;;;;;;70.50;56.25;;;;;4.09;89.09;102514.81;4907686;29;45836;-85
2022/01/25 01:05:20;;;;;;;;;70.75;57.75;;;;;4.06;89.28;102509.34;4906458;29;45391;-85
2022/01/25 01:07:47;;;;;;;;;71.50;59.50;;;;;4.06;89.26;102508.41;4888490;29;45406;-85
2022/01/25 01:10:16;;;;;;;;;76.00;59.75;;;;;4.06;89.57;102512.00;4891393;29;45347;-84
2022/01/25 01:29:10;;;;;;;;;75.00;60.50;;;;;3.95;89.95;102515.59;4910131;28;45334;-85
2022/01/25 01:40:08;;;;;;;;;59.25;46.50;;;;;4.06;89.98;102529.47;4910899;28;45202;-85
2022/01/25 01:42:54;;;;;;;;;62.50;50.00;;;;;4.04;89.68;102524.13;4912324;28;45625;-84
2022/01/25 01:51:01;;;;;;;;;68.75;55.00;;;;;4.07;89.31;102526.06;4830542;29;45486;-84
2022/01/25 01:53:27;;;;;;;;;73.75;58.50;;;;;4.03;90.17;102532.81;4815595;29;45076;-84
2022/01/25 01:55:52;;;;;;;;;67.50;55.50;;;;;3.98;89.76;102535.16;4829052;29;46592;-84
2022/01/25 01:58:18;;;;;;;;;68.50;53.50;;;;;3.97;89.72;102540.31;4829026;29;45457;-84
2022/01/25 02:00:46;;;;;;;;;63.50;53.25;;;;;3.97;89.59;102542.94;4834650;29;45829;-84
2022/01/25 02:03:12;;;;;;;;;66.50;52.00;;;;;3.91;88.89;102539.88;4838012;29;45504;-85
2022/01/25 02:05:38;;;;;;;;;65.50;52.50;;;;;3.89;89.43;102550.28;4837935;29;46101;-86
2022/01/25 02:08:05;;;;;;;;;63.00;51.50;;;;;3.80;89.44;102537.41;4838669;29;45808;-85
2022/01/25 02:10:31;;;;;;;;;61.75;50.00;;;;;3.76;89.35;102535.38;4838221;29;45394;-85
2022/01/25 02:12:56;;;;;;;;;65.75;55.00;;;;;3.77;89.18;102545.06;4838662;29;45517;-85
2022/01/25 02:15:25;;;;;;;;;64.75;49.75;;;;;3.77;89.30;102542.44;4834263;29;45629;-85
2022/01/25 02:23:27;;;;;;;;;62.00;50.50;;;;;3.74;88.98;102544.88;4909152;29;44849;-85
2022/01/25 02:25:58;;;;;;;;;62.75;52.00;;;;;3.77;89.03;102550.34;4893909;29;46804;-85
2022/01/25 02:28:27;;;;;;;;;59.50;49.00;;;;;3.75;89.44;102548.41;4896684;28;45429;-85
2022/01/25 02:30:53;;;;;;;;;65.25;53.25;;;;;3.72;88.31;102541.22;4915614;28;44821;-85
2022/01/25 02:33:19;;;;;;;;;60.25;48.75;;;;;3.65;88.98;102536.31;4897566;29;45549;-85
2022/01/25 02:35:44;;;;;;;;;63.75;52.00;;;;;3.58;88.93;102534.06;4894919;29;46990;-84
2022/01/25 02:38:13;;;;;;;;;61.50;51.00;;;;;3.62;89.37;102538.75;4897707;29;45716;-85
2022/01/25 02:40:40;;;;;;;;;67.75;52.75;;;;;3.54;89.34;102543.44;4896809;29;44830;-86
2022/01/25 02:43:06;;;;;;;;;62.00;51.50;;;;;3.53;89.20;102551.22;4914438;28;45381;-85
2022/01/25 02:45:34;;;;;;;;;68.25;54.25;;;;;3.52;88.97;102557.31;4912145;29;45385;-85
2022/01/25 02:50:49;;;;;;;;;62.00;51.75;;;;;3.57;88.80;102542.75;4911125;29;45820;-85
2022/01/25 02:53:15;;;;;;;;;67.25;54.00;;;;;3.51;88.45;102529.16;4893336;29;44822;-85
2022/01/25 02:55:41;;;;;;;;;49.00;39.25;;;;;3.54;88.53;102540.81;4909428;29;45896;-85
2022/01/25 02:58:08;;;;;;;;;63.50;51.75;;;;;3.60;88.38;102537.72;4909902;29;45403;-85
2022/01/25 03:00:34;;;;;;;;;61.00;51.50;;;;;3.57;88.57;102529.59;4897758;29;45809;-85
2022/01/25 03:02:59;;;;;;;;;63.75;49.50;;;;;3.56;88.83;102522.53;4897495;29;45400;-85
2022/01/25 03:05:25;;;;;;;;;64.00;51.25;;;;;3.61;88.57;102534.25;4897656;29;47215;-85
2022/01/25 03:07:50;;;;;;;;;66.75;54.00;;;;;3.61;89.00;102539.53;4914298;28;45404;-85
2022/01/25 03:10:16;;;;;;;;;66.25;53.50;;;;;3.58;89.05;102545.50;4913716;29;45365;-85
2022/01/25 03:12:48;;;;;;;;;61.50;50.00;;;;;3.42;88.00;102526.78;4913319;28;45514;-86
2022/01/25 03:17:59;;;;;;;;;64.00;52.50;;;;;3.40;88.46;102536.28;4908852;29;45587;-86
2022/01/25 03:20:48;;;;;;;;;63.75;52.50;;;;;3.33;88.84;102537.56;4892376;29;45495;-86
2022/01/25 03:23:21;;;;;;;;;58.75;48.25;;;;;3.32;88.67;102529.56;4910600;29;45437;-86
2022/01/25 03:25:48;;;;;;;;;58.75;50.75;;;;;3.35;89.72;102529.75;4893445;29;47496;-86
2022/01/25 03:28:18;;;;;;;;;66.25;55.00;;;;;3.35;89.00;102525.44;4892605;29;45423;-85
2022/01/25 03:30:45;;;;;;;;;66.75;52.75;;;;;3.28;89.29;102512.66;4895408;29;45343;-85
2022/01/25 03:33:14;;;;;;;;;64.50;52.50;;;;;3.37;89.54;102517.63;4896011;28;45416;-85
2022/01/25 03:35:39;;;;;;;;;57.00;46.50;;;;;3.35;89.38;102504.41;4912776;28;46619;-85
2022/01/25 03:38:05;;;;;;;;;64.00;50.75;;;;;3.36;89.46;102502.69;4911782;28;45404;-85
2022/01/25 03:40:30;;;;;;;;;63.25;53.50;;;;;3.43;89.75;102515.44;4895763;28;44864;-85
2022/01/25 03:42:58;;;;;;;;;63.25;50.75;;;;;3.39;89.37;102514.34;4893228;29;45650;-85
2022/01/25 03:45:30;;;;;;;;;53.00;45.25;;;;;3.31;89.58;102502.38;4892925;29;47185;-85
2022/01/25 03:50:41;;;;;;;;;63.00;48.00;;;;;3.28;90.00;102517.91;4909988;29;45800;-85
2022/01/25 03:53:07;;;;;;;;;63.25;46.50;;;;;3.22;90.17;102504.31;4893608;29;45104;-84
2022/01/25 03:55:33;;;;;;;;;59.00;48.00;;;;;3.29;90.02;102513.53;4909799;29;45591;-84
2022/01/25 03:57:58;;;;;;;;;46.25;41.25;;;;;3.32;90.57;102516.41;4892628;29;46186;-84
2022/01/25 04:00:24;;;;;;;;;63.75;52.75;;;;;3.34;89.58;102518.34;4912570;29;45406;-86
2022/01/25 04:03:05;;;;;;;;;64.50;52.25;;;;;3.43;90.61;102525.06;4895635;29;44952;-85
2022/01/25 04:07:59;;;;;;;;;62.25;52.75;;;;;3.59;90.04;102517.47;4912205;28;45374;-85
2022/01/25 04:10:25;;;;;;;;;70.75;55.75;;;;;3.68;90.61;102515.50;4895122;29;45471;-86
2022/01/25 04:12:50;;;;;;;;;73.75;59.75;;;;;3.66;90.50;102517.09;4912523;28;45490;-85
2022/01/25 04:15:16;;;;;;;;;66.00;53.75;;;;;3.66;90.74;102509.22;4890824;29;47123;-85
2022/01/25 04:17:45;;;;;;;;;61.75;50.50;;;;;3.71;89.39;102515.69;4907980;29;45493;-85
2022/01/25 04:20:19;;;;;;;;;64.50;52.00;;;;;3.75;89.02;102528.25;4908876;29;45789;-85
2022/01/25 04:25:31;;;;;;;;;58.25;50.25;;;;;3.77;89.17;102526.66;4907613;29;45721;-85
2022/01/25 04:27:56;;;;;;;;;64.00;48.75;;;;;3.80;89.52;102526.88;4890842;29;45442;-85
2022/01/25 04:30:21;;;;;;;;;60.25;49.50;;;;;3.80;88.76;102511.09;4891359;29;45686;-85
2022/01/25 04:32:52;;;;;;;;;52.00;44.50;;;;;3.84;88.60;102516.53;4889236;29;45445;-85
2022/01/25 04:49:24;;;;;;;;;47.00;42.75;;;;;3.60;87.95;102535.09;4895120;29;45480;-86
2022/01/25 04:52:58;;;;;;;;;46.50;43.00;;;;;3.73;87.58;102542.13;4879689;29;45446;-86
2022/01/25 04:55:35;;;;;;;;;49.75;43.00;;;;;3.67;87.27;102542.59;4896066;29;45338;-85
2022/01/25 04:58:08;;;;;;;;;53.25;44.75;;;;;3.65;87.26;102541.56;4875457;29;48113;-85
2022/01/25 05:00:34;;;;;;;;;48.75;44.75;;;;;3.58;88.32;102540.22;4875280;29;45462;-85
2022/01/25 05:03:12;;;;;;;;;46.50;42.50;;;;;3.47;87.71;102535.91;4875923;29;45496;-85
2022/01/25 05:06:03;;;;;;;;;53.50;44.25;;;;;3.44;87.44;102529.53;4878533;29;45549;-85
2022/01/25 05:16:15;;;;;;;;;50.75;42.75;;;;;3.60;88.12;102541.25;4897078;29;45407;-86
2022/01/25 05:23:51;;;;;;;;;45.00;40.50;;;;;3.66;87.31;102553.94;4897037;28;44908;-85
2022/01/25 05:26:16;;;;;;;;;36.25;34.50;;;;;3.67;88.11;102553.13;4896015;29;45900;-85
2022/01/25 05:28:42;;;;;;;;;49.75;42.50;;;;;3.66;87.45;102547.78;4895372;28;45490;-85
2022/01/25 05:31:07;;;;;;;;;42.25;39.75;;;;;3.54;87.35;102550.44;4894290;29;45768;-86
2022/01/25 05:33:32;;;;;;;;;59.50;48.25;;;;;3.47;88.12;102556.03;4893113;29;46057;-86
2022/01/25 05:35:58;;;;;;;;;43.75;41.25;;;;;3.37;88.35;102551.81;4876428;29;45363;-86
2022/01/25 05:38:24;;;;;;;;;51.50;45.00;;;;;3.27;87.59;102526.56;4875388;29;46886;-86
2022/01/25 05:41:01;;;;;;;;;53.25;45.75;;;;;3.37;88.39;102542.25;4876112;29;45435;-86
2022/01/25 05:46:17;;;;;;;;;60.50;46.25;;;;;3.43;88.47;102538.22;4893353;29;45423;-86
2022/01/25 05:48:45;;;;;;;;;44.25;40.00;;;;;3.49;89.15;102551.81;4875599;29;47014;-86
2022/01/25 05:51:11;;;;;;;;;41.25;33.25;;;;;3.48;88.31;102536.84;4876904;29;45433;-85
2022/01/25 05:53:37;;;;;;;;;54.00;48.00;;;;;3.46;88.70;102543.72;4876623;29;45426;-85
2022/01/25 05:56:05;;;;;;;;;64.00;47.00;;;;;3.39;88.97;102535.38;4877348;29;45406;-86
2022/01/25 05:58:30;;;;;;;;;56.75;46.00;;;;;3.35;88.09;102550.81;4886558;29;45202;-86
2022/01/25 06:00:56;;;;;;;;;55.25;43.00;;;;;3.32;89.11;102551.50;4896308;29;45310;-86
2022/01/25 06:03:21;;;;;;;;;60.25;46.25;;;;;3.36;88.97;102557.91;4880430;29;45362;-86
2022/01/25 06:05:47;;;;;;;;;52.75;45.25;;;;;3.31;89.07;102549.69;4896905;28;46040;-86
2022/01/25 06:08:13;;;;;;;;;57.25;45.50;;;;;3.27;89.17;102544.97;4897137;28;45779;-85
2022/01/25 06:10:39;;;;;;;;;51.00;44.00;;;;;3.35;89.51;102550.81;4896452;28;45687;-85
2022/01/25 06:13:05;;;;;;;;;46.50;42.00;;;;;3.39;88.76;102551.16;4882039;29;45428;-85
2022/01/25 06:15:36;;;;;;;;;51.50;46.25;;;;;3.32;89.03;102545.34;4895933;29;45320;-85
2022/01/25 06:18:01;;;;;;;;;58.75;48.25;;;;;3.39;89.09;102558.13;4877675;29;46838;-86
2022/01/25 06:20:28;;;;;;;;;50.00;41.50;;;;;3.35;88.88;102546.47;4895148;29;45447;-86
2022/01/25 06:22:54;;;;;;;;;48.50;41.50;;;;;3.27;89.13;102542.34;4877601;29;45412;-86
2022/01/25 06:25:19;;;;;;;;;54.00;46.00;;;;;3.17;88.65;102546.06;4878067;29;45341;-86
2022/01/25 06:27:45;;;;;;;;;48.00;43.75;;;;;3.07;89.66;102533.03;4878898;29;46016;-86
2022/01/25 06:30:15;;;;;;;;;52.50;44.25;;;;;3.07;89.59;102540.94;4880818;29;45495;-85
2022/01/25 06:32:41;;;;;;;;;56.00;45.25;;;;;3.09;89.44;102541.97;4887821;28;45413;-85
2022/01/25 06:39:16;;;;;;;;;48.00;43.75;;;;;3.23;89.74;102545.56;4916813;29;45435;-84
2022/01/25 06:41:41;;;;;;;;;59.25;48.50;;;;;3.11;89.86;102547.31;4899777;29;45487;-85
2022/01/25 06:44:07;;;;;;;;;49.25;44.50;;;;;3.01;89.56;102537.84;4913500;29;44893;-85
2022/01/25 06:46:33;;;;;;;;;57.50;46.50;;;;;2.93;89.59;102538.97;4897482;29;45763;-85
2022/01/25 06:48:58;;;;;;;;;50.75;45.50;;;;;2.95;89.90;102535.69;4896301;29;47806;-85
2022/01/25 06:51:24;;;;;;;;;58.25;45.75;;;;;2.96;90.66;102518.19;4896146;29;45426;-85
2022/01/25 06:53:49;;;;;;;;;52.25;44.00;;;;;3.16;89.82;102538.06;4913630;29;45460;-85
2022/01/25 06:56:15;;;;;;;;;55.75;47.25;;;;;3.22;89.46;102546.38;4896476;29;44841;-85
2022/01/25 06:58:41;;;;;;;;;52.75;44.50;;;;;3.17;89.60;102545.13;4913942;29;45337;-85
2022/01/25 07:01:07;;;;;;;;;54.00;46.00;;;;;3.09;89.90;102539.31;4896662;29;44843;-85
2022/01/25 07:03:33;;;;;;;;;51.00;45.25;;;;;2.97;89.74;102520.03;4895866;29;44970;-85
2022/01/25 07:05:59;;;;;;;;;53.50;44.00;;;;;2.96;89.67;102512.94;4897157;29;45796;-86
2022/01/25 07:08:24;;;;;;;;;63.75;51.25;;;;;3.26;89.61;102553.69;4895634;29;47039;-85
2022/01/25 07:10:49;;;;;;;;;55.00;46.00;;;;;3.25;89.32;102554.47;4912820;29;44741;-85
2022/01/25 07:13:15;;;;;;;;;60.50;51.25;;;;;3.25;89.94;102558.84;4896688;29;45472;-85
2022/01/25 07:15:42;;;;;;;;;64.50;46.25;;;;;3.33;90.39;102565.56;4914396;28;44778;-86
2022/01/25 07:18:08;;;;;;;;;43.00;40.00;;;;;3.20;90.11;102548.00;4898180;29;46456;-86
2022/01/25 07:20:33;;;;;;;;;62.25;48.75;;;;;3.23;89.53;102566.59;4898068;28;45341;-85
2022/01/25 07:22:59;;;;;;;;;64.25;53.00;;;;;2.96;89.69;102510.31;4898262;29;45327;-86
2022/01/25 07:25:25;;;;;;;;;64.50;50.25;;;;;3.18;89.96;102545.25;4880568;29;45405;-85
2022/01/25 07:31:47;;;;;;;;;62.75;51.50;;;;;3.36;90.44;102558.81;4915454;28;44801;-85
2022/01/25 07:34:13;;;;;;;;;54.25;49.00;;;;;3.36;89.68;102563.16;4916771;28;45365;-86
2022/01/25 07:36:42;;;;;;;;;58.25;47.50;;;;;3.35;90.71;102574.47;4899515;29;44912;-85
2022/01/25 07:39:11;;;;;;;;;53.75;42.00;;;;;3.38;90.21;102573.00;4916395;28;45361;-85
2022/01/25 07:41:38;;;;;;;;;63.00;50.00;;;;;3.39;90.29;102581.78;4918043;29;45349;-85
2022/01/25 07:44:04;;;;;;;;;56.75;47.25;;;;;3.38;90.22;102583.50;4900789;29;45786;-86
2022/01/25 07:46:30;;;;;;;;;65.25;52.25;;;;;3.38;90.78;102575.63;4901492;29;45544;-85
2022/01/25 07:48:57;;;;;;;;;67.50;55.50;;;;;3.48;90.56;102589.44;4918631;28;47924;-85
2022/01/25 07:51:28;;;;;;;;;61.25;49.50;;;;;3.53;89.94;102578.44;4870661;28;45408;-86
2022/01/25 07:53:55;;;;;;;;;56.25;48.50;;;;;3.45;89.77;102569.06;4901962;29;44898;-85
2022/01/25 07:56:21;;;;;;;;;65.00;52.25;;;;;3.52;89.57;102580.97;4903248;28;44894;-87
2022/01/25 07:58:47;;;;;;;;;64.75;52.25;;;;;3.48;90.46;102590.34;4903988;28;46959;-85
2022/01/25 08:01:14;;;;;;;;;59.25;48.50;;;;;3.39;90.35;102580.09;4902096;28;44830;-85
2022/01/25 08:03:40;;;;;;;;;64.25;53.50;;;;;3.40;90.03;102581.91;4901404;29;45391;-84
2022/01/25 08:06:07;;;;;;;;;61.75;49.75;;;;;3.31;89.80;102562.84;4900213;29;45342;-84
2022/01/25 08:08:35;;;;;;;;;61.50;49.00;;;;;3.48;89.62;102586.81;4915720;28;45520;-88
2022/01/25 08:11:03;;;;;;;;;62.75;51.25;;;;;3.65;89.99;102598.56;4902766;29;44858;-85
2022/01/25 08:13:32;;;;;;;;;54.50;45.50;;;;;3.48;89.85;102585.09;4902274;29;45758;-85
2022/01/25 08:15:58;;;;;;;;;62.25;53.50;;;;;3.60;89.96;102606.13;4917362;29;45250;-86
2022/01/25 08:18:31;;;;;;;;;70.75;54.75;;;;;3.58;89.98;102589.31;4900727;29;47180;-85
2022/01/25 08:20:57;;;;;;;;;63.75;49.25;;;;;3.68;89.53;102599.69;4916529;28;45638;-86
2022/01/25 08:26:51;;;;;;;;;65.75;51.50;;;;;3.73;89.66;102607.91;4920185;29;44729;-84
2022/01/25 08:29:31;;;;;;;;;;;;;;;;;;;;;
2022/01/25 08:32:07;;;;;;;;;73.25;54.75;;;;;3.62;90.08;102572.03;4905132;29;71956;-86
2022/01/25 08:34:41;;;;;;;;;69.50;53.50;;;;;3.82;89.38;102608.56;4898834;29;45533;-86
2022/01/25 08:37:10;;;;;;;;;67.00;54.00;;;;;3.69;89.08;102588.34;4895518;29;45434;-87
2022/01/25 08:39:40;;;;;;;;;67.75;53.50;;;;;3.65;89.58;102586.31;4878203;29;46026;-87
2022/01/25 08:42:24;;;;;;;;;62.25;50.50;;;;;3.65;90.00;102594.19;4908576;29;44878;-86
2022/01/25 08:45:29;;;;;;;;;64.25;48.25;;;;;3.63;89.37;102603.69;4909859;28;45559;-89
2022/01/25 08:48:20;;;;;;;;;64.50;53.50;;;;;3.51;90.04;102595.81;4916689;28;45445;-88
2022/01/25 08:51:04;;;;;;;;;61.50;47.50;;;;;3.66;90.42;102605.66;4899715;29;45437;-88
2022/01/25 08:53:37;;;;;;;;;65.75;52.50;;;;;3.77;90.31;102599.44;4897422;29;45485;-88
2022/01/25 08:56:10;;;;;;;;;59.75;47.75;;;;;3.63;89.93;102563.31;4900713;29;45409;-88
2022/01/25 08:58:45;;;;;;;;;64.25;49.75;;;;;3.78;90.06;102581.13;4901148;29;45103;-87
2022/01/25 09:01:21;;;;;;;;;66.75;54.00;;;;;3.77;89.42;102571.38;4902883;29;47025;-89
2022/01/25 09:03:47;;;;;;;;;63.50;53.00;;;;;3.89;89.41;102588.88;4903207;29;45495;-87
2022/01/25 09:06:14;;;;;;;;;64.75;51.75;;;;;3.91;89.62;102603.94;4905040;29;45000;-87
2022/01/25 09:08:44;;;;;;;;;65.00;51.25;;;;;3.92;89.62;102607.50;4964618;23;45330;-87
2022/01/25 09:11:28;;;;;;;;;64.75;49.50;;;;;4.06;90.08;102603.19;4883716;28;45436;-88
2022/01/25 09:14:23;;;;;;;;;66.25;52.25;;;;;4.12;89.61;102608.91;4897527;29;45233;-88
2022/01/25 09:17:09;;;;;;;;;66.25;54.00;;;;;4.13;89.92;102606.38;4884687;29;44825;-87
2022/01/25 09:20:03;;;;;;;;;65.75;53.75;;;;;4.00;89.40;102604.63;4883027;29;45413;-87
2022/01/25 09:22:58;;;;;;;;;67.50;54.00;;;;;4.10;89.01;102611.44;4891560;23;45662;-87
2022/01/25 09:25:53;;;;;;;;;57.00;47.25;;;;;4.14;89.13;102612.56;4865477;29;45641;-87
2022/01/25 09:28:38;;;;;;;;;59.00;45.75;;;;;3.97;88.26;102572.78;4858394;29;45183;-87
2022/01/25 09:31:31;;;;;;;;;55.50;46.75;;;;;3.91;88.94;102551.31;4894857;29;45345;-87
2022/01/25 09:34:51;;;;;;;;;53.50;45.75;;;;;4.23;87.85;102612.31;4870812;29;46471;-87
2022/01/25 09:42:54;;;;;;;;;59.00;47.75;;;;;4.43;87.94;102633.03;4880166;27;45011;-86
2022/01/25 09:45:36;;;;;;;;;56.00;47.25;;;;;4.48;87.51;102628.06;4864515;29;47922;-86
2022/01/25 09:48:04;;;;;;;;;59.00;48.50;;;;;4.14;87.74;102581.88;4882135;29;45065;-87
2022/01/25 09:50:55;;;;;;;;;61.25;47.75;;;;;4.18;87.58;102583.94;4859833;29;45471;-87
2022/01/25 09:53:24;;;;;;;;;64.50;52.25;;;;;4.37;87.38;102627.34;4891999;29;45813;-86
2022/01/25 09:55:51;;;;;;;;;58.75;49.25;;;;;4.50;88.42;102639.63;4858603;29;45741;-85
2022/01/25 09:58:17;;;;;;;;;54.25;45.25;;;;;4.52;87.93;102640.66;4861421;29;45538;-85
2022/01/25 10:00:46;;;;;;;;;64.50;51.50;;;;;4.44;87.60;102619.03;4851795;29;44828;-87
2022/01/25 10:03:24;;;;;;;;;67.25;55.75;;;;;4.49;87.82;102635.19;4866062;29;45455;-87
2022/01/25 10:05:52;;;;;;;;;63.50;49.75;;;;;4.20;87.95;102598.13;4864688;29;47308;-87
2022/01/25 10:08:22;;;;;;;;;64.75;49.00;;;;;4.49;87.92;102638.72;4870119;29;45526;-85
2022/01/25 10:10:52;;;;;;;;;65.25;55.75;;;;;4.49;87.98;102627.28;4864816;29;44909;-85
2022/01/25 10:13:24;;;;;;;;;62.75;52.25;;;;;4.66;87.80;102644.25;4861264;29;45476;-87
2022/01/25 10:15:59;;;;;;;;;65.00;51.75;;;;;4.65;87.32;102640.72;4879430;29;46835;-85
2022/01/25 10:18:45;;;;;;;;;63.50;49.00;;;;;4.45;87.22;102594.53;4863891;29;45296;-87
2022/01/25 10:21:25;;;;;;;;;63.50;52.00;;;;;4.67;87.51;102643.47;4877662;29;45387;-86
2022/01/25 10:24:06;;;;;;;;;56.00;47.00;;;;;4.69;86.98;102641.84;4869932;29;45497;-87
2022/01/25 10:26:53;;;;;;;;;61.25;50.50;;;;;4.77;87.08;102645.91;4880288;29;45532;-86
2022/01/25 10:29:34;;;;;;;;;63.50;47.25;;;;;4.73;87.13;102628.97;4872017;29;45516;-87
2022/01/25 10:32:06;;;;;;;;;67.75;51.50;;;;;4.73;86.63;102625.44;4867938;29;45272;-86
2022/01/25 10:34:39;;;;;;;;;64.00;52.50;;;;;4.93;87.07;102643.50;4881692;29;45367;-86
2022/01/25 10:37:14;;;;;;;;;64.00;52.00;;;;;4.73;86.94;102602.59;4875513;29;45198;-85
2022/01/25 10:39:46;;;;;;;;;60.75;48.00;;;;;4.99;86.58;102643.91;4886457;29;45543;-86
2022/01/25 10:42:21;;;;;;;;;57.75;46.75;;;;;5.02;86.97;102645.84;4865286;29;44861;-86
2022/01/25 10:44:57;;;;;;;;;52.00;40.75;;;;;4.87;86.11;102627.25;4877432;29;45205;-86
2022/01/25 10:47:44;;;;;;;;;63.75;50.00;;;;;4.92;86.20;102636.38;4877122;29;45590;-86
2022/01/25 10:50:26;;;;;;;;;60.25;47.00;;;;;4.56;86.00;102604.06;4864333;29;45469;-84
2022/01/25 10:53:08;;;;;;;;;52.00;44.50;;;;;4.80;87.00;102631.19;4878696;29;45002;-86
2022/01/25 10:55:43;;;;;;;;;64.25;47.00;;;;;4.99;86.91;102648.28;4879816;29;44911;-86
2022/01/25 10:58:10;;;;;;;;;58.75;47.50;;;;;4.82;85.97;102626.03;4860906;29;47789;-84
2022/01/25 11:00:42;;;;;;;;;59.50;47.00;;;;;4.79;86.26;102631.09;4847630;29;45646;-84
2022/01/25 11:03:09;;;;;;;;;58.25;48.50;;;;;4.50;86.39;102606.28;4864004;29;44777;-87
2022/01/25 11:05:43;;;;;;;;;55.50;46.00;;;;;4.70;86.23;102623.47;4865766;29;44871;-87
2022/01/25 11:08:29;;;;;;;;;57.75;46.50;;;;;4.66;85.40;102647.78;4853810;29;45691;-88
2022/01/25 11:11:14;;;;;;;;;63.00;50.50;;;;;4.34;86.07;102608.69;4864216;29;45506;-87
2022/01/25 11:13:48;;;;;;;;;52.75;44.00;;;;;4.58;86.90;102644.63;4873794;29;45318;-87
2022/01/25 11:16:13;;;;;;;;;61.00;47.25;;;;;4.54;87.60;102625.88;4870565;29;45545;-86
2022/01/25 11:18:44;;;;;;;;;64.50;49.50;;;;;4.65;87.25;102603.81;4883899;29;46683;-88
2022/01/25 11:21:15;;;;;;;;;71.25;56.50;;;;;4.80;86.24;102615.38;4860473;29;44876;-88
2022/01/25 11:23:44;;;;;;;;;58.50;48.25;;;;;4.97;86.37;102637.63;4873776;29;45874;-86
2022/01/25 11:26:16;;;;;;;;;67.25;50.75;;;;;5.11;86.51;102630.63;4844115;29;45447;-87
2022/01/25 11:28:45;;;;;;;;;69.75;56.25;;;;;5.09;85.86;102629.63;4863945;29;46222;-88
2022/01/25 11:31:21;;;;;;;;;60.00;49.75;;;;;5.13;85.85;102639.56;4866469;29;45368;-88
2022/01/25 11:33:50;;;;;;;;;58.00;45.50;;;;;4.89;85.55;102615.09;4882851;29;44794;-88
2022/01/25 11:36:19;;;;;;;;;59.25;43.50;;;;;4.99;86.55;102638.63;4863056;29;45475;-86
2022/01/25 11:38:51;;;;;;;;;61.00;46.50;;;;;5.09;86.67;102645.44;4864833;29;46906;-85
2022/01/25 11:41:22;;;;;;;;;74.25;59.25;;;;;5.00;86.10;102613.16;4860006;29;45901;-85
2022/01/25 11:47:22;;;;;;;;;60.75;51.25;;;;;5.22;86.27;102644.53;4876625;29;45353;-86
2022/01/25 11:49:54;;;;;;;;;70.00;57.75;;;;;5.30;86.03;102642.41;4881163;29;47164;-87
2022/01/25 11:52:22;;;;;;;;;63.75;50.25;;;;;5.11;85.73;102600.69;4880519;29;45445;-84
2022/01/25 11:55:27;;;;;;;;;;;;;;;;;;;;;
2022/01/25 12:01:19;;;;;;;;;61.75;49.25;;;;;5.44;85.60;102612.56;4876580;29;45397;-85
2022/01/25 12:04:40;;;;;;;;;51.00;43.75;;;;;5.72;85.90;102627.53;4877106;29;45243;-87
2022/01/25 12:07:25;;;;;;;;;61.00;46.50;;;;;5.61;85.57;102626.84;4863022;29;45504;-87
2022/01/25 12:12:26;;;;;;;;;59.50;47.25;;;;;5.44;85.71;102595.81;4912301;23;46004;-85
2022/01/25 12:14:55;;;;;;;;;54.00;44.00;;;;;5.57;85.94;102614.25;4844288;29;44860;-86
2022/01/25 12:17:27;;;;;;;;;38.50;36.00;;;;;5.51;85.00;102590.09;4832491;29;45547;-84
2022/01/25 12:20:00;;;;;;;;;56.33;45.67;;;;;5.66;85.52;102604.31;4858823;29;45670;-87
2022/01/25 12:33:05;;;;;;;;;36.50;36.50;;;;;5.78;84.73;102594.50;4879614;29;45475;-89
2022/01/25 12:35:52;;;;;;;;;56.50;46.00;;;;;5.77;85.05;102605.88;4866812;29;47074;-87
2022/01/25 12:38:38;;;;;;;;;60.25;46.25;;;;;5.68;85.01;102592.09;4897860;28;45521;-88
2022/01/25 12:41:31;;;;;;;;;66.75;50.25;;;;;5.74;85.02;102607.44;4898097;28;45434;-88
2022/01/25 12:47:20;;;;;;;;;53.50;44.00;;;;;5.61;85.62;102600.44;4895837;29;45861;-89
2022/01/25 12:49:51;;;;;;;;;61.67;44.67;;;;;5.56;85.53;102596.59;4898634;29;45330;-86
2022/01/25 12:52:25;;;;;;;;;47.67;40.67;;;;;5.51;85.56;102582.19;4866877;29;45276;-85
2022/01/25 12:54:59;;;;;;;;;57.25;42.50;;;;;5.49;85.64;102552.16;4877974;29;44973;-84
2022/01/25 12:57:34;;;;;;;;;53.00;43.33;;;;;5.44;85.42;102538.66;4879832;29;47125;-85
2022/01/25 13:00:41;;;;;;;;;61.67;47.33;;;;;5.69;85.65;102572.78;4905291;28;45393;-85
2022/01/25 13:03:58;;;;;;;;;;;;;;;;;;;;;
2022/01/25 13:07:01;;;;;;;;;52.00;44.00;;;;;5.77;85.02;102590.03;4788698;29;45489;-87
2022/01/25 13:10:37;;;;;;;;;51.75;42.50;;;;;5.72;85.05;102583.56;4814040;29;45380;-86
2022/01/25 14:40:17;;;;;;;;;56.33;44.33;;;;;4.76;86.69;102550.09;5181325;23;45901;-86
2022/01/25 14:43:19;;;;;;;;;55.00;42.75;;;;;4.82;86.77;102549.59;4852054;29;45494;-88
2022/01/25 14:46:53;;;;;;;;;;;;;;;;;;;;;
2022/01/25 14:53:18;;;;;;;;;49.33;43.00;;;;;4.96;87.39;102580.41;4815553;29;45876;-86
2022/01/25 14:56:47;;;;;;;;;;;;;;;;;;;;;
2022/01/25 14:59:51;;;;;;;;;53.67;42.33;;;;;5.01;87.59;102572.81;4687263;30;68391;-87
2022/01/25 15:06:51;;;;;;;;;;;;;;;;;;;;;
2022/01/25 15:20:23;;;;;;;;;47.67;41.00;;;;;4.71;88.22;102587.50;4778772;29;45333;-88
2022/01/25 15:27:14;;;;;;;;;;;;;;;;;;;;;
2022/01/25 15:30:50;;;;;;;;;;;;;;;;;;;;;
2022/01/25 15:33:19;;;;;;;;;47.50;41.25;;;;;4.44;88.51;102586.53;4738119;30;74607;-88
2022/01/25 15:36:05;;;;;;;;;;;;;;;;;;;;;
2022/01/25 15:39:05;;;;;;;;;48.00;43.00;;;;;4.29;88.42;102570.59;4786293;29;68062;-87
2022/01/25 15:42:05;;;;;;;;;;;;;;;;;;;;;
2022/01/25 15:44:54;;;;;;;;;35.50;27.50;;;;;4.49;88.55;102615.03;4775268;29;75515;-88
2022/01/25 15:47:51;;;;;;;;;;;;;;;;;;;;;
2022/01/25 15:50:36;;;;;;;;;;;;;;;;;;;;;
2022/01/25 15:53:42;;;;;;;;;56.67;41.67;;;;;4.27;88.47;102567.84;4786152;29;66435;-88
2022/01/25 15:56:36;;;;;;;;;44.67;35.00;;;;;4.32;88.68;102581.31;4799711;29;44948;-87
2022/01/25 16:03:00;;;;;;;;;50.00;39.33;;;;;4.22;88.87;102574.50;4805685;29;45711;-87
2022/01/25 16:25:52;;;;;;;;;41.67;39.33;;;;;4.37;88.96;102607.19;4759415;27;45882;-85
2022/01/25 16:28:21;;;;;;;;;47.67;41.67;;;;;4.34;89.15;102616.56;4877516;29;45527;-86
2022/01/25 16:31:06;;;;;;;;;44.67;42.67;;;;;4.29;88.88;102615.38;4863790;29;45398;-84
2022/01/25 16:33:37;;;;;;;;;51.00;43.00;;;;;4.13;88.87;102601.13;4865217;29;45417;-86
2022/01/25 16:36:17;;;;;;;;;49.50;45.50;;;;;4.18;89.68;102610.25;4863172;29;45788;-85
2022/01/25 16:38:46;;;;;;;;;49.00;43.00;;;;;4.14;89.51;102626.66;4862298;29;45714;-85
2022/01/25 16:41:15;;;;;;;;;44.50;39.50;;;;;3.84;89.23;102579.72;4862377;29;45652;-84
2022/01/25 16:43:51;;;;;;;;;48.25;42.25;;;;;3.81;89.33;102589.22;4878894;29;44862;-86
2022/01/25 16:46:21;;;;;;;;;46.50;43.00;;;;;3.89;89.98;102588.88;4863250;29;44792;-86
2022/01/25 16:48:55;;;;;;;;;54.75;40.00;;;;;3.98;89.89;102600.97;4861973;29;45574;-85